Time;durP1;ratioP1;P1;durP2;ratioP2;P2;SDS_P1;SDS_P2;PMS_P1;PMS_P2;Temp;Humidity;BMP_temperature;BMP_pressure;BME280_temperature;BME280_humidity;BME280_pressure;Samples;Min_cycle;Max_cycle;Signal;HPM_P1;HPM_P2
2022/10/11 00:00:39;;;;;;;;;;;7.50;99.90;;;;;;4883571;29;20127;-72
2022/10/11 00:03:05;;;;;;;1.80;0.55;;;7.40;99.90;;;;;;4912302;29;19923;-71
2022/10/11 00:05:31;;;;;;;0.60;0.32;;;7.20;99.90;;;;;;4895963;29;20059;-72
2022/10/11 00:07:57;;;;;;;0.45;0.20;;;7.20;99.90;;;;;;4895246;29;20098;-71
2022/10/11 00:10:23;;;;;;;0.52;0.20;;;7.40;99.90;;;;;;4897079;29;20531;-72
2022/10/11 00:12:51;;;;;;;0.93;0.32;;;7.10;99.90;;;;;;4901570;29;20123;-71
2022/10/11 00:15:19;;;;;;;0.98;0.50;;;7.40;99.90;;;;;;4866642;29;20463;-71
2022/10/11 00:17:45;;;;;;;1.50;0.50;;;7.00;99.90;;;;;;4886478;29;20123;-72
2022/10/11 00:20:11;;;;;;;1.25;0.40;;;7.00;99.90;;;;;;4896026;29;20449;-71
2022/10/11 00:22:39;;;;;;;1.15;0.20;;;7.00;99.90;;;;;;4872821;29;20045;-71
2022/10/11 00:25:08;;;;;;;1.27;0.47;;;7.30;99.90;;;;;;4886557;29;20043;-72
2022/10/11 00:27:34;;;;;;;1.30;0.40;;;6.90;99.90;;;;;;4903994;29;20492;-72
2022/10/11 00:30:00;;;;;;;1.20;0.20;;;7.00;99.90;;;;;;4886116;29;20501;-71
2022/10/11 00:32:26;;;;;;;;;;;7.10;99.90;;;;;;4897383;29;20040;-71
2022/10/11 00:34:52;;;;;;;1.77;0.50;;;7.20;99.90;;;;;;4898762;29;19971;-72
2022/10/11 00:37:18;;;;;;;1.13;0.40;;;7.20;99.90;;;;;;4891728;29;20064;-72
2022/10/11 00:39:44;;;;;;;1.52;0.60;;;7.00;99.90;;;;;;4885770;29;20607;-71
2022/10/11 00:42:16;;;;;;;4.35;0.95;;;7.20;99.90;;;;;;4899828;29;20127;-72
2022/10/11 00:44:45;;;;;;;2.40;0.57;;;7.50;99.90;;;;;;4915663;29;20051;-72
2022/10/11 00:47:16;;;;;;;1.30;0.70;;;7.50;99.90;;;;;;4904439;29;20146;-76
2022/10/11 00:49:44;;;;;;;2.10;0.63;;;7.50;99.90;;;;;;4903800;29;20055;-76
2022/10/11 00:52:21;;;;;;;1.38;0.40;;;7.60;99.90;;;;;;4914014;29;20071;-76
2022/10/11 00:54:48;;;;;;;1.05;0.43;;;7.30;99.90;;;;;;4911062;29;20217;-75
2022/10/11 00:57:19;;;;;;;0.75;0.40;;;7.30;99.90;;;;;;4905622;29;20411;-76
2022/10/11 00:59:51;;;;;;;1.10;0.43;;;7.50;99.90;;;;;;4934417;29;20090;-75
2022/10/11 01:02:18;;;;;;;0.70;0.20;;;7.50;99.90;;;;;;4915893;29;20048;-75
2022/10/11 01:04:44;;;;;;;2.40;0.50;;;7.50;99.90;;;;;;4907640;29;20459;-75
2022/10/11 01:07:10;;;;;;;0.85;0.30;;;7.40;99.90;;;;;;4898064;29;20036;-75
2022/10/11 01:09:36;;;;;;;;;;;7.20;99.90;;;;;;4894379;29;20095;-75
2022/10/11 01:12:05;;;;;;;1.35;0.45;;;7.40;99.90;;;;;;4886491;29;19931;-75
2022/10/11 01:14:49;;;;;;;0.82;0.25;;;7.20;99.90;;;;;;4900315;29;20445;-75
2022/10/11 01:17:43;;;;;;;0.60;0.30;;;7.20;99.90;;;;;;4902650;29;20193;-75
2022/10/11 01:20:14;;;;;;;0.70;0.17;;;6.90;99.90;;;;;;4914218;29;20149;-75
2022/10/11 01:23:18;;;;;;;1.15;0.40;;;7.10;99.90;;;;;;4901289;29;20056;-75
2022/10/11 01:26:08;;;;;;;0.85;0.30;;;6.80;99.90;;;;;;4905070;29;20226;-75
2022/10/11 01:28:51;;;;;;;0.82;0.40;;;6.60;99.90;;;;;;4901787;29;20567;-75
2022/10/11 01:31:19;;;;;;;0.73;0.30;;;6.70;99.90;;;;;;4912283;29;20044;-76
2022/10/11 01:33:52;;;;;;;1.05;0.40;;;6.70;99.90;;;;;;4900301;29;20148;-76
2022/10/11 01:36:26;;;;;;;0.45;0.20;;;6.60;99.90;;;;;;4899447;29;20087;-76
2022/10/11 01:38:55;;;;;;;0.20;0.20;;;6.20;99.90;;;;;;4894426;29;20059;-75
2022/10/11 01:41:24;;;;;;;1.33;0.30;;;6.20;99.90;;;;;;4898933;29;20082;-75
2022/10/11 01:43:56;;;;;;;0.75;0.38;;;6.20;99.90;;;;;;4907264;29;20105;-75
2022/10/11 01:46:23;;;;;;;0.85;0.40;;;6.10;99.90;;;;;;4886382;29;20048;-76
2022/10/11 01:48:55;;;;;;;0.73;0.30;;;6.10;99.90;;;;;;4881945;29;20032;-75
2022/10/11 01:51:24;;;;;;;0.30;0.20;;;6.20;99.90;;;;;;4918332;29;20043;-76
2022/10/11 01:54:31;;;;;;;0.68;0.47;;;6.00;99.90;;;;;;4897936;29;20047;-75
2022/10/11 01:57:08;;;;;;;0.50;0.28;;;6.00;99.90;;;;;;4874770;29;20067;-75
2022/10/11 01:59:41;;;;;;;0.70;0.30;;;5.90;99.90;;;;;;4898975;29;20056;-75
2022/10/11 02:02:38;;;;;;;0.60;0.22;;;6.20;99.90;;;;;;4892196;29;20063;-75
2022/10/11 02:05:24;;;;;;;0.90;0.35;;;6.10;99.90;;;;;;4892576;29;20072;-75
2022/10/11 02:07:59;;;;;;;0.50;0.17;;;6.10;99.90;;;;;;4894539;29;20062;-76
2022/10/11 02:10:33;;;;;;;1.17;0.22;;;6.10;99.90;;;;;;4896430;29;20088;-75
2022/10/11 02:13:08;;;;;;;0.65;0.20;;;6.00;99.90;;;;;;4896737;29;20036;-76
2022/10/11 02:15:37;;;;;;;0.45;0.20;;;5.90;99.90;;;;;;4897407;29;20048;-76
2022/10/11 02:18:08;;;;;;;1.10;0.35;;;5.60;99.90;;;;;;4888448;29;20044;-76
2022/10/11 02:20:38;;;;;;;1.25;0.32;;;5.70;99.90;;;;;;4884553;29;20539;-75
2022/10/11 02:23:36;;;;;;;2.30;0.50;;;5.90;99.90;;;;;;4884891;29;20127;-76
2022/10/11 02:26:05;;;;;;;0.80;0.20;;;5.80;99.90;;;;;;4882578;29;20135;-75
2022/10/11 02:28:33;;;;;;;0.88;0.22;;;6.00;99.90;;;;;;4912798;29;20052;-75
2022/10/11 02:31:00;;;;;;;0.52;0.20;;;5.70;99.90;;;;;;4896281;29;20114;-75
2022/10/11 02:33:34;;;;;;;0.43;0.20;;;5.60;99.90;;;;;;4888421;29;20051;-75
2022/10/11 02:36:09;;;;;;;0.50;0.20;;;5.70;99.90;;;;;;4901620;29;20048;-75
2022/10/11 02:38:39;;;;;;;0.63;0.30;;;5.70;99.90;;;;;;4925528;29;20076;-75
2022/10/11 02:41:29;;;;;;;0.73;0.32;;;6.00;99.90;;;;;;4896281;29;20512;-75
2022/10/11 02:44:02;;;;;;;1.02;0.40;;;5.70;99.90;;;;;;4888684;29;20076;-75
2022/10/11 02:46:31;;;;;;;0.85;0.20;;;5.90;99.90;;;;;;4882504;29;20130;-74
2022/10/11 02:48:58;;;;;;;1.50;0.30;;;6.00;99.90;;;;;;4906052;29;20103;-75
2022/10/11 02:51:26;;;;;;;0.95;0.32;;;5.70;99.90;;;;;;4902134;29;20076;-75
2022/10/11 02:53:52;;;;;;;1.35;0.30;;;5.80;99.90;;;;;;4909161;29;20044;-76
2022/10/11 02:56:18;;;;;;;0.50;0.20;;;6.00;99.90;;;;;;4893557;29;20110;-75
2022/10/11 02:58:43;;;;;;;0.68;0.30;;;5.70;99.90;;;;;;4898322;29;20555;-76
2022/10/11 03:01:09;;;;;;;0.40;0.20;;;5.80;99.90;;;;;;4888282;29;20044;-76
2022/10/11 03:03:35;;;;;;;0.85;0.30;;;5.50;99.90;;;;;;4897477;29;20040;-75
2022/10/11 03:06:02;;;;;;;0.35;0.20;;;5.70;99.90;;;;;;4882907;29;20040;-76
2022/10/11 03:08:28;;;;;;;0.55;0.22;;;5.80;99.90;;;;;;4895962;29;20060;-76
2022/10/11 03:10:54;;;;;;;0.82;0.20;;;5.70;99.90;;;;;;4884611;29;20055;-76
2022/10/11 03:13:20;;;;;;;0.65;0.20;;;5.70;99.90;;;;;;4896180;29;20389;-76
2022/10/11 03:15:50;;;;;;;0.40;0.28;;;5.50;99.90;;;;;;4899424;29;20072;-75
2022/10/11 03:18:16;;;;;;;0.68;0.20;;;5.70;99.90;;;;;;4906813;29;20515;-75
2022/10/11 03:20:42;;;;;;;1.05;0.40;;;5.90;99.90;;;;;;4915650;29;20088;-76
2022/10/11 03:23:08;;;;;;;1.48;0.40;;;5.70;99.90;;;;;;4909548;29;20393;-75
2022/10/11 03:25:34;;;;;;;1.15;0.28;;;5.70;99.90;;;;;;4906371;29;20044;-75
2022/10/11 03:27:59;;;;;;;0.30;0.20;;;5.80;99.90;;;;;;4896791;29;20044;-75
2022/10/11 03:30:25;;;;;;;0.63;0.23;;;5.70;99.90;;;;;;4898651;29;20489;-75
2022/10/11 03:32:51;;;;;;;1.23;0.30;;;5.50;99.90;;;;;;4880598;29;20775;-75
2022/10/11 03:35:17;;;;;;;2.63;0.40;;;5.50;99.90;;;;;;4897597;29;20152;-75
2022/10/11 03:37:43;;;;;;;0.70;0.28;;;5.50;99.90;;;;;;4901616;29;20316;-75
2022/10/11 03:40:09;;;;;;;0.50;0.20;;;5.50;99.90;;;;;;4895794;29;20060;-76
2022/10/11 03:42:36;;;;;;;0.65;0.30;;;5.20;99.90;;;;;;4877964;29;20119;-75
2022/10/11 03:45:06;;;;;;;0.95;0.20;;;5.10;99.90;;;;;;4887436;29;20044;-75
2022/10/11 03:47:33;;;;;;;2.08;0.40;;;5.30;99.90;;;;;;4882076;29;20047;-75
2022/10/11 03:49:58;;;;;;;;;;;5.40;99.90;;;;;;4895514;29;20046;-76
2022/10/11 03:52:24;;;;;;;0.82;0.30;;;5.10;99.90;;;;;;4891004;29;19923;-76
2022/10/11 03:54:50;;;;;;;1.65;0.40;;;5.00;99.90;;;;;;4892569;29;20072;-75
2022/10/11 03:57:15;;;;;;;1.35;0.40;;;5.10;99.90;;;;;;4886892;29;20052;-75
2022/10/11 03:59:41;;;;;;;1.05;0.20;;;5.00;99.90;;;;;;4882357;29;20135;-76
2022/10/11 04:02:07;;;;;;;0.88;0.30;;;4.90;99.90;;;;;;4892483;29;20050;-75
2022/10/11 04:04:32;;;;;;;0.25;0.13;;;5.00;99.90;;;;;;4889884;29;20124;-75
2022/10/11 04:06:58;;;;;;;0.60;0.25;;;5.20;99.90;;;;;;4892774;29;20055;-76
2022/10/11 04:09:24;;;;;;;0.95;0.28;;;5.20;99.90;;;;;;4896937;29;20046;-76
2022/10/11 04:11:49;;;;;;;0.70;0.30;;;5.20;99.90;;;;;;4895228;29;20072;-75
2022/10/11 04:14:16;;;;;;;0.30;0.20;;;5.20;99.90;;;;;;4898491;29;20304;-75
2022/10/11 04:16:41;;;;;;;0.70;0.22;;;5.20;99.90;;;;;;4900566;29;20362;-76
2022/10/11 04:19:07;;;;;;;0.88;0.15;;;4.90;99.90;;;;;;4899072;29;20464;-76
2022/10/11 04:21:33;;;;;;;0.75;0.20;;;5.20;99.90;;;;;;4897230;29;20046;-76
2022/10/11 04:23:58;;;;;;;0.60;0.15;;;4.90;99.90;;;;;;4900076;29;20050;-76
2022/10/11 04:26:24;;;;;;;0.88;0.40;;;4.80;99.90;;;;;;4899744;29;20575;-76
2022/10/11 04:28:50;;;;;;;1.38;0.28;;;4.80;99.90;;;;;;4898615;29;20036;-76
2022/10/11 04:31:16;;;;;;;1.58;0.40;;;5.20;99.90;;;;;;4903248;29;20088;-76
2022/10/11 04:33:41;;;;;;;2.08;0.40;;;5.00;99.90;;;;;;4908769;29;20051;-76
2022/10/11 04:36:07;;;;;;;2.08;0.30;;;5.00;99.90;;;;;;4900646;29;20042;-76
2022/10/11 04:38:33;;;;;;;1.23;0.32;;;5.00;99.90;;;;;;4913588;29;20074;-76
2022/10/11 04:41:10;;;;;;;2.25;0.40;;;5.00;99.90;;;;;;4891416;29;20048;-76
2022/10/11 04:43:36;;;;;;;;;;;4.90;99.90;;;;;;4900515;29;20059;-75
2022/10/11 04:46:02;;;;;;;1.20;0.50;;;5.10;99.90;;;;;;4899587;29;19939;-74
2022/10/11 04:48:28;;;;;;;1.70;0.47;;;4.80;99.90;;;;;;4899655;29;20516;-76
2022/10/11 04:50:54;;;;;;;1.38;0.40;;;4.90;99.90;;;;;;4896016;29;20044;-77
2022/10/11 04:53:19;;;;;;;0.90;0.30;;;5.20;99.90;;;;;;4892798;29;20115;-76
2022/10/11 04:55:56;;;;;;;0.60;0.30;;;5.10;99.90;;;;;;4896707;29;20044;-76
2022/10/11 04:58:22;;;;;;;0.77;0.30;;;5.30;99.90;;;;;;4914661;29;20052;-75
2022/10/11 05:00:47;;;;;;;0.53;0.20;;;5.40;99.90;;;;;;4883812;29;20502;-76
2022/10/11 05:03:13;;;;;;;1.90;0.43;;;5.10;99.90;;;;;;4880595;29;20312;-76
2022/10/11 05:05:38;;;;;;;2.25;0.50;;;5.10;99.90;;;;;;4898615;29;20150;-76
2022/10/11 05:08:04;;;;;;;1.55;0.47;;;5.50;99.90;;;;;;4898627;29;20086;-76
2022/10/11 05:10:30;;;;;;;2.78;0.40;;;5.40;99.90;;;;;;4867186;29;20040;-76
2022/10/11 05:12:55;;;;;;;1.13;0.50;;;5.50;99.90;;;;;;4880922;29;20043;-76
2022/10/11 05:15:21;;;;;;;0.93;0.40;;;5.10;99.90;;;;;;4897736;29;20247;-76
2022/10/11 05:17:47;;;;;;;0.75;0.47;;;5.40;99.90;;;;;;4869529;29;20058;-76
2022/10/11 05:20:12;;;;;;;0.73;0.50;;;5.20;99.90;;;;;;4898670;29;20115;-76
2022/10/11 05:22:38;;;;;;;0.73;0.40;;;5.60;99.90;;;;;;4881826;29;20079;-76
2022/10/11 05:25:04;;;;;;;0.32;0.22;;;5.50;99.90;;;;;;4887106;29;20040;-76
2022/10/11 05:27:30;;;;;;;1.50;0.40;;;5.60;99.90;;;;;;4896553;29;20048;-76
2022/10/11 05:29:55;;;;;;;1.13;0.60;;;5.40;99.90;;;;;;4896257;29;20080;-75
2022/10/11 05:32:21;;;;;;;1.23;0.37;;;5.30;99.90;;;;;;4895032;29;20320;-78
2022/10/11 05:34:46;;;;;;;0.33;0.30;;;5.60;99.90;;;;;;4900565;29;20297;-78
2022/10/11 05:37:12;;;;;;;1.03;0.50;;;5.60;99.90;;;;;;4898981;29;20759;-78
2022/10/11 05:39:38;;;;;;;1.35;0.50;;;5.60;99.90;;;;;;4908763;29;20833;-79
2022/10/11 05:42:04;;;;;;;1.55;0.68;;;5.30;99.90;;;;;;4933089;29;20043;-79
2022/10/11 05:44:29;;;;;;;0.52;0.45;;;5.70;99.90;;;;;;4915649;29;20035;-79
2022/10/11 05:46:55;;;;;;;1.97;0.80;;;5.40;99.90;;;;;;4895565;29;20110;-79
2022/10/11 05:49:20;;;;;;;0.50;0.40;;;5.60;99.90;;;;;;4932052;29;20300;-79
2022/10/11 05:51:46;;;;;;;0.97;0.80;;;5.50;99.90;;;;;;4882991;29;20319;-78
2022/10/11 05:54:12;;;;;;;0.88;0.47;;;5.50;99.90;;;;;;4882098;29;20304;-78
2022/10/11 05:56:37;;;;;;;1.10;0.50;;;5.70;99.90;;;;;;4898693;29;20044;-78
2022/10/11 05:59:03;;;;;;;0.57;0.50;;;5.70;99.90;;;;;;4915256;29;20507;-78
2022/10/11 06:01:29;;;;;;;1.23;0.50;;;5.50;99.90;;;;;;4898788;29;20054;-78
2022/10/11 06:03:55;;;;;;;1.10;0.70;;;5.50;99.90;;;;;;4904344;29;20119;-78
2022/10/11 06:06:21;;;;;;;0.80;0.50;;;5.80;99.90;;;;;;4920445;29;20043;-78
2022/10/11 06:08:47;;;;;;;0.70;0.50;;;5.80;99.90;;;;;;4921612;29;20043;-78
2022/10/11 06:11:32;;;;;;;1.23;0.70;;;5.80;99.90;;;;;;4906102;29;20075;-78
2022/10/11 06:13:58;;;;;;;1.80;0.60;;;5.50;99.90;;;;;;4902914;29;20039;-78
2022/10/11 06:16:24;;;;;;;0.68;0.43;;;5.60;99.90;;;;;;4885695;29;20068;-78
2022/10/11 06:18:55;;;;;;;1.52;0.60;;;5.60;99.90;;;;;;4883927;29;20111;-78
2022/10/11 06:21:21;;;;;;;2.58;0.70;;;6.00;99.90;;;;;;4899171;29;20502;-78
2022/10/11 06:23:51;;;;;;;0.93;0.50;;;6.00;99.90;;;;;;4882977;29;20407;-78
2022/10/11 06:26:17;;;;;;;2.15;0.50;;;5.90;99.90;;;;;;4883814;29;20071;-78
2022/10/11 06:28:43;;;;;;;;;;;6.10;99.90;;;;;;4896940;29;20050;-77
2022/10/11 06:31:09;;;;;;;0.98;0.50;;;5.80;99.90;;;;;;4894002;29;19997;-77
2022/10/11 06:33:36;;;;;;;1.15;0.60;;;6.10;99.90;;;;;;4881040;29;20482;-76
2022/10/11 06:36:06;;;;;;;;;;;6.30;99.90;;;;;;4902533;29;20040;-77
2022/10/11 06:38:32;;;;;;;0.32;0.30;;;6.40;99.90;;;;;;4895729;29;19927;-77
2022/10/11 06:41:09;;;;;;;0.52;0.40;;;6.00;99.90;;;;;;4901926;29;20070;-77
2022/10/11 06:43:35;;;;;;;1.13;0.35;;;6.40;99.90;;;;;;4893800;29;20399;-77
2022/10/11 06:46:00;;;;;;;0.47;0.30;;;6.60;99.90;;;;;;4867232;29;20048;-77
2022/10/11 06:48:26;;;;;;;0.82;0.30;;;6.70;99.90;;;;;;4907913;29;20798;-77
2022/10/11 06:50:52;;;;;;;1.15;0.40;;;6.30;99.90;;;;;;4910822;29;20111;-77
2022/10/11 06:53:17;;;;;;;0.65;0.28;;;6.50;99.90;;;;;;4878441;29;20054;-77
2022/10/11 06:55:43;;;;;;;0.65;0.30;;;6.60;99.90;;;;;;4891448;29;20543;-77
2022/10/11 06:58:09;;;;;;;0.82;0.40;;;6.90;99.90;;;;;;4897959;29;20569;-77
2022/10/11 07:00:35;;;;;;;1.10;0.30;;;6.80;99.90;;;;;;4894260;29;20044;-76
2022/10/11 07:03:01;;;;;;;0.85;0.38;;;7.20;99.90;;;;;;4894853;29;20040;-77
2022/10/11 07:05:28;;;;;;;0.80;0.40;;;6.80;99.90;;;;;;4882340;29;20055;-76
2022/10/11 07:07:54;;;;;;;0.50;0.20;;;7.20;99.90;;;;;;4899521;29;20308;-77
2022/10/11 07:10:19;;;;;;;1.17;0.30;;;7.40;99.90;;;;;;4864893;29;20147;-77
2022/10/11 07:12:45;;;;;;;1.20;0.45;;;7.60;99.90;;;;;;4911200;29;20039;-76
2022/10/11 07:15:11;;;;;;;1.08;0.30;;;7.70;99.90;;;;;;4907002;29;20048;-77
2022/10/11 07:17:37;;;;;;;0.32;0.22;;;7.30;99.90;;;;;;4903595;29;20043;-76
2022/10/11 07:20:04;;;;;;;0.68;0.30;;;7.40;99.90;;;;;;4916445;29;20483;-77
2022/10/11 07:22:29;;;;;;;0.40;0.20;;;7.70;99.90;;;;;;4912632;29;20063;-77
2022/10/11 07:24:55;;;;;;;0.97;0.30;;;8.20;99.90;;;;;;4898036;29;20052;-77
2022/10/11 07:27:22;;;;;;;0.47;0.20;;;7.90;99.90;;;;;;4896582;29;20830;-76
2022/10/11 07:29:48;;;;;;;1.77;0.30;;;8.10;99.90;;;;;;4895835;29;20135;-76
2022/10/11 07:32:15;;;;;;;1.55;0.50;;;8.30;99.90;;;;;;4911796;29;20547;-76
2022/10/11 07:34:41;;;;;;;1.90;0.70;;;8.50;99.90;;;;;;4896814;29;20063;-76
2022/10/11 07:37:07;;;;;;;2.10;0.50;;;9.20;99.90;;;;;;4874957;29;20436;-75
2022/10/11 07:39:33;;;;;;;0.80;0.35;;;8.90;99.90;;;;;;4880622;29;20107;-77
2022/10/11 07:41:59;;;;;;;1.13;0.30;;;9.60;99.90;;;;;;4909666;29;20421;-77
2022/10/11 07:44:25;;;;;;;1.73;0.40;;;9.40;99.90;;;;;;4891579;29;20080;-77
2022/10/11 07:46:51;;;;;;;1.95;0.65;;;9.90;99.90;;;;;;4881790;29;20090;-77
2022/10/11 07:49:16;;;;;;;1.33;0.60;;;9.70;99.90;;;;;;4900264;29;20048;-77
2022/10/11 07:51:42;;;;;;;3.13;0.82;;;9.80;99.90;;;;;;4900972;29;20040;-77
2022/10/11 07:54:08;;;;;;;0.98;0.40;;;10.00;99.90;;;;;;4896862;29;20047;-77
2022/10/11 07:56:35;;;;;;;2.03;0.70;;;10.10;99.90;;;;;;4904435;29;20055;-77
2022/10/11 07:59:05;;;;;;;1.92;0.80;;;10.30;99.90;;;;;;4897138;29;20055;-77
2022/10/11 08:01:32;;;;;;;3.15;0.80;;;10.30;99.90;;;;;;4896923;29;20044;-77
2022/10/11 08:03:57;;;;;;;3.15;0.80;;;10.20;99.90;;;;;;4901141;29;20042;-77
2022/10/11 08:06:28;;;;;;;3.55;0.80;;;10.30;99.90;;;;;;4898240;29;20411;-77
2022/10/11 08:08:54;;;;;;;3.53;0.75;;;10.40;99.90;;;;;;4904242;29;20067;-77
2022/10/11 08:11:25;;;;;;;2.45;0.70;;;10.40;99.90;;;;;;4897225;29;20597;-77
2022/10/11 08:13:51;;;;;;;1.67;0.60;;;10.50;99.90;;;;;;4895462;29;20095;-76
2022/10/11 08:16:17;;;;;;;2.72;0.70;;;10.60;99.90;;;;;;4898601;29;20211;-77
2022/10/11 08:18:43;;;;;;;2.63;0.65;;;10.50;99.90;;;;;;4885869;29;20052;-76
2022/10/11 08:21:11;;;;;;;1.75;0.50;;;10.50;99.90;;;;;;4901372;29;20594;-77
2022/10/11 08:23:37;;;;;;;1.30;0.47;;;10.80;99.90;;;;;;4902237;29;20071;-77
2022/10/11 08:26:03;;;;;;;1.80;0.50;;;10.70;99.90;;;;;;4903866;29;20059;-77
2022/10/11 08:28:29;;;;;;;2.67;0.70;;;10.70;99.90;;;;;;4896152;29;20151;-77
2022/10/11 08:30:55;;;;;;;3.38;0.80;;;10.80;99.90;;;;;;4897727;29;20036;-77
2022/10/11 08:33:22;;;;;;;2.90;0.63;;;10.80;99.90;;;;;;4892652;29;20056;-77
2022/10/11 08:35:49;;;;;;;2.45;0.70;;;10.90;99.90;;;;;;4900463;29;20044;-77
2022/10/11 08:38:15;;;;;;;3.88;0.80;;;11.10;99.90;;;;;;4283089;29;18135000;-77
2022/10/11 08:40:56;;;;;;;1.60;0.80;;;11.00;99.90;;;;;;4893204;29;20061;-77
2022/10/11 08:43:39;;;;;;;3.72;0.70;;;11.10;99.90;;;;;;4896730;29;20557;-78
2022/10/11 08:46:07;;;;;;;3.75;0.85;;;11.30;99.90;;;;;;4899308;29;20079;-78
2022/10/11 08:48:47;;;;;;;3.28;0.80;;;11.30;99.90;;;;;;4895869;29;20048;-76
2022/10/11 08:51:49;;;;;;;3.70;1.25;;;11.40;99.90;;;;;;4909423;29;20044;-77
2022/10/11 08:54:18;;;;;;;3.78;1.00;;;11.40;99.90;;;;;;4880964;29;20036;-77
2022/10/11 08:56:44;;;;;;;3.63;0.88;;;11.50;99.90;;;;;;4896841;29;20060;-77
2022/10/11 08:59:10;;;;;;;2.88;0.80;;;11.80;99.90;;;;;;4866224;29;20430;-77
2022/10/11 09:01:41;;;;;;;3.90;1.25;;;11.70;99.90;;;;;;4906208;29;20076;-76
2022/10/11 09:04:14;;;;;;;4.25;0.90;;;11.90;99.90;;;;;;4900130;29;20048;-76
2022/10/11 09:06:39;;;;;;;3.72;1.05;;;12.00;99.90;;;;;;4899874;29;20087;-76
2022/10/11 09:09:29;;;;;;;4.00;0.93;;;12.00;99.90;;;;;;4915595;29;20094;-77
2022/10/11 09:12:10;;;;;;;4.00;1.00;;;12.00;99.90;;;;;;4915631;29;20052;-77
2022/10/11 09:14:50;;;;;;;5.47;1.10;;;12.20;99.90;;;;;;4900011;29;20036;-77
2022/10/11 09:17:45;;;;;;;4.30;0.93;;;12.20;99.90;;;;;;4915386;29;20044;-77
2022/10/11 09:20:21;;;;;;;3.85;0.98;;;12.50;99.90;;;;;;4886828;29;20060;-77
2022/10/11 09:22:47;;;;;;;3.50;0.82;;;12.70;99.90;;;;;;4915594;29;20063;-77
2022/10/11 09:25:18;;;;;;;5.53;1.27;;;12.60;99.90;;;;;;4918407;29;20048;-77
2022/10/11 09:27:44;;;;;;;4.28;1.30;;;12.70;99.90;;;;;;4918633;29;20070;-76
2022/10/11 09:30:17;;;;;;;4.00;1.08;;;12.80;99.90;;;;;;4918552;29;20491;-77
2022/10/11 09:33:31;;;;;;;4.03;1.10;;;12.90;99.90;;;;;;4884103;29;20052;-77
2022/10/11 09:35:57;;;;;;;4.05;1.02;;;13.00;99.90;;;;;;4818396;29;20141;-77
2022/10/11 09:38:41;;;;;;;;;;;13.10;99.90;;;;;;4899673;29;20064;-77
2022/10/11 09:41:37;;;;;;;5.05;1.02;;;13.10;99.90;;;;;;4899305;29;19927;-77
2022/10/11 09:44:06;;;;;;;4.07;0.90;;;13.30;99.90;;;;;;4899191;29;20090;-77
2022/10/11 09:46:39;;;;;;;5.13;1.10;;;13.40;99.90;;;;;;4899092;29;20058;-77
2022/10/11 09:49:11;;;;;;;3.70;0.90;;;13.40;99.90;;;;;;4899286;29;20044;-77
2022/10/11 09:51:38;;;;;;;2.65;0.85;;;13.50;99.90;;;;;;4883809;29;20075;-77
2022/10/11 09:54:05;;;;;;;3.88;0.80;;;13.60;99.90;;;;;;4883390;29;20488;-77
2022/10/11 09:56:33;;;;;;;3.88;0.88;;;13.60;99.90;;;;;;4899080;29;20518;-77
2022/10/11 09:59:27;;;;;;;3.35;0.95;;;13.70;99.90;;;;;;4883340;29;20044;-77
2022/10/11 10:02:11;;;;;;;4.75;0.88;;;13.60;99.90;;;;;;4897048;29;20052;-76
2022/10/11 10:04:52;;;;;;;5.28;1.20;;;13.80;99.90;;;;;;4899080;29;20047;-77
2022/10/11 10:07:19;;;;;;;4.68;0.90;;;13.90;99.90;;;;;;4882397;29;20044;-75
2022/10/11 10:09:45;;;;;;;5.88;1.40;;;14.10;99.90;;;;;;4898860;29;20365;-76
2022/10/11 10:12:11;;;;;;;;;;;14.10;99.90;;;;;;4883821;29;20427;-76
2022/10/11 10:14:38;;;;;;;4.63;1.30;;;14.20;99.90;;;;;;4898778;29;20205;-76
2022/10/11 10:17:13;;;;;;;3.35;0.85;;;14.20;99.90;;;;;;4898745;29;20379;-76
2022/10/11 10:19:45;;;;;;;6.07;1.48;;;14.20;99.90;;;;;;4898510;29;20044;-75
2022/10/11 10:22:25;;;;;;;6.68;1.50;;;14.20;99.90;;;;;;4889195;29;20103;-76
2022/10/11 10:24:52;;;;;;;3.53;1.42;;;14.40;99.90;;;;;;4901787;29;20059;-76
2022/10/11 10:27:22;;;;;;;5.43;1.38;;;14.40;99.90;;;;;;4907387;29;20120;-76
2022/10/11 10:30:06;;;;;;;2.63;0.90;;;14.60;99.90;;;;;;4879577;29;20108;-76
2022/10/11 10:32:35;;;;;;;3.05;0.80;;;14.80;99.90;;;;;;4911000;29;20336;-75
2022/10/11 10:35:12;;;;;;;6.65;1.73;;;14.80;99.90;;;;;;4913962;29;20044;-76
2022/10/11 10:37:47;;;;;;;6.20;1.58;;;14.90;99.90;;;;;;4913776;29;20071;-75
2022/10/11 10:40:23;;;;;;;6.20;1.52;;;14.90;99.90;;;;;;4898285;29;20051;-77
2022/10/11 10:42:49;;;;;;;6.85;1.30;;;15.00;99.90;;;;;;4897593;29;20047;-79
2022/10/11 10:45:17;;;;;;;5.03;1.15;;;15.30;99.90;;;;;;4897631;29;20044;-76
2022/10/11 10:47:42;;;;;;;4.13;1.20;;;15.50;99.90;;;;;;4910747;29;20166;-76
2022/10/11 10:50:11;;;;;;;5.35;1.20;;;15.80;99.90;;;;;;4916231;29;20087;-76
2022/10/11 10:52:56;;;;;;;3.55;0.88;;;16.00;99.90;;;;;;4904394;29;20585;-76
2022/10/11 10:55:24;;;;;;;5.47;1.27;;;16.10;99.90;;;;;;4912581;29;20534;-75
2022/10/11 10:58:06;;;;;;;5.00;1.13;;;16.30;99.90;;;;;;4901164;29;20130;-75
2022/10/11 11:01:01;;;;;;;4.70;1.17;;;16.40;99.90;;;;;;4896444;29;20059;-75
2022/10/11 11:03:51;;;;;;;3.60;0.98;;;16.60;99.90;;;;;;4903744;29;20106;-76
2022/10/11 11:06:38;;;;;;;4.90;1.23;;;16.80;99.90;;;;;;4888348;29;20040;-75
2022/10/11 11:09:28;;;;;;;6.22;1.40;;;16.70;99.90;;;;;;4875013;29;20047;-75
2022/10/11 11:12:31;;;;;;;3.75;0.90;;;16.70;99.90;;;;;;4897067;29;20643;-76
2022/10/11 11:15:03;;;;;;;3.65;0.90;;;16.80;99.90;;;;;;4896472;29;20154;-74
2022/10/11 11:17:56;;;;;;;4.57;1.02;;;16.40;99.90;;;;;;4896944;29;20040;-77
2022/10/11 11:20:45;;;;;;;3.45;1.05;;;16.10;99.90;;;;;;4893411;29;20403;-74
2022/10/11 11:23:26;;;;;;;2.85;0.98;;;15.60;99.90;;;;;;4900117;29;20047;-76
2022/10/11 11:26:25;;;;;;;5.10;0.90;;;15.40;99.90;;;;;;4893225;29;20064;-75
2022/10/11 11:28:56;;;;;;;3.20;0.85;;;15.20;99.90;;;;;;4912319;29;20059;-74
2022/10/11 11:31:58;;;;;;;3.90;0.75;;;15.10;99.90;;;;;;4900605;29;20432;-75
2022/10/11 11:34:53;;;;;;;2.92;0.73;;;15.00;99.90;;;;;;4880785;29;20050;-75
2022/10/11 11:37:29;;;;;;;2.00;0.70;;;15.40;99.90;;;;;;4896113;29;20040;-75
2022/10/11 11:40:25;;;;;;;1.40;0.50;;;15.50;99.90;;;;;;4893288;29;21522;-75
2022/10/11 11:42:57;;;;;;;2.35;0.60;;;15.60;99.90;;;;;;4855518;29;20064;-75
2022/10/11 11:45:40;;;;;;;6.35;1.00;;;15.60;99.90;;;;;;4892723;29;20052;-75
2022/10/11 11:48:25;;;;;;;3.83;1.05;;;15.40;99.90;;;;;;4901535;29;21814;-75
2022/10/11 11:50:59;;;;;;;6.28;1.20;;;15.30;99.90;;;;;;4910383;29;20055;-75
2022/10/11 11:53:54;;;;;;;3.97;1.02;;;15.00;99.90;;;;;;4893023;29;20052;-75
2022/10/11 11:57:17;;;;;;;5.63;1.38;;;14.90;99.90;;;;;;4898692;29;20375;-75
2022/10/11 12:00:05;;;;;;;4.00;0.90;;;14.80;99.90;;;;;;4838499;29;20498;-75
2022/10/11 12:02:36;;;;;;;4.97;1.17;;;14.70;99.90;;;;;;4824663;29;20199;-76
2022/10/11 12:05:09;;;;;;;2.85;0.88;;;14.60;99.90;;;;;;4877321;29;20055;-75
2022/10/11 12:07:49;;;;;;;3.80;1.05;;;14.60;99.90;;;;;;4897201;29;20591;-75
2022/10/11 12:10:23;;;;;;;5.47;1.25;;;14.50;99.90;;;;;;4899358;29;20128;-75
2022/10/11 12:13:20;;;;;;;3.78;0.90;;;14.50;99.90;;;;;;4898037;29;20047;-76
2022/10/11 12:16:00;;;;;;;2.57;0.70;;;14.40;99.90;;;;;;4897924;29;20064;-75
2022/10/11 12:18:27;;;;;;;4.57;0.95;;;14.50;99.90;;;;;;4893630;29;20314;-75
2022/10/11 12:21:21;;;;;;;6.28;1.17;;;14.40;99.90;;;;;;4914304;29;20028;-78
2022/10/11 12:23:55;;;;;;;4.43;1.10;;;14.40;99.90;;;;;;4933429;29;20059;-78
2022/10/11 12:26:27;;;;;;;2.35;0.75;;;14.40;99.90;;;;;;4882019;29;20435;-77
2022/10/11 12:29:17;;;;;;;3.00;0.85;;;14.40;99.90;;;;;;4904818;29;20056;-77
2022/10/11 12:31:50;;;;;;;2.85;0.80;;;14.50;99.90;;;;;;4904575;29;20048;-77
2022/10/11 12:34:29;;;;;;;3.28;0.70;;;14.70;99.90;;;;;;4901492;29;20122;-78
2022/10/11 12:36:55;;;;;;;5.03;1.23;;;14.90;99.90;;;;;;4881974;29;20048;-78
2022/10/11 12:39:21;;;;;;;3.47;0.80;;;15.00;99.90;;;;;;4900817;29;20060;-78
2022/10/11 12:41:50;;;;;;;;;;;15.10;99.90;;;;;;4885569;29;20127;-78
2022/10/11 12:44:27;;;;;;;5.78;1.10;;;15.30;99.90;;;;;;4897939;29;19923;-74
2022/10/11 12:46:53;;;;;;;2.10;0.70;;;15.60;99.90;;;;;;4903752;29;20044;-75
2022/10/11 12:49:49;;;;;;;6.00;1.42;;;16.00;99.90;;;;;;4898600;29;20460;-74
2022/10/11 12:52:15;;;;;;;3.45;0.93;;;16.30;99.90;;;;;;4890121;29;20090;-74
2022/10/11 12:54:56;;;;;;;2.92;0.70;;;16.90;99.90;;;;;;4899860;29;20079;-74
2022/10/11 12:57:51;;;;;;;2.55;0.90;;;16.70;99.70;;;;;;4900691;29;20052;-74
2022/10/11 13:00:30;;;;;;;3.90;0.77;;;17.00;99.90;;;;;;4897606;29;20499;-74
2022/10/11 13:02:59;;;;;;;3.17;0.80;;;17.00;99.90;;;;;;4899511;29;20056;-74
2022/10/11 13:05:42;;;;;;;2.72;0.82;;;16.50;99.80;;;;;;4884158;29;20048;-74
2022/10/11 13:08:24;;;;;;;2.95;0.80;;;16.20;99.90;;;;;;4883102;29;20059;-75
2022/10/11 13:10:51;;;;;;;2.17;0.82;;;15.80;99.90;;;;;;4895205;29;20047;-77
2022/10/11 13:13:26;;;;;;;2.10;0.65;;;15.60;99.90;;;;;;4896146;29;20384;-76
2022/10/11 13:15:54;;;;;;;2.47;0.63;;;15.40;99.90;;;;;;4900569;29;20087;-76
2022/10/11 13:18:23;;;;;;;2.17;0.82;;;15.20;99.90;;;;;;4896216;29;20048;-76